sensor_id;sensor_type;location;lat;lon;timestamp;P1;durP1;ratioP1;P2;durP2;ratioP2
17265;SDS011;8749;47.076;15.412;2022-07-23T00:00:13;10.38;;;9.45;;
17265;SDS011;8749;47.076;15.412;2022-07-23T00:02:40;10.75;;;9.63;;
17265;SDS011;8749;47.076;15.412;2022-07-23T00:05:07;10.25;;;9.25;;
17265;SDS011;8749;47.076;15.412;2022-07-23T00:07:35;10.70;;;9.70;;
17265;SDS011;8749;47.076;15.412;2022-07-23T00:10:02;11.60;;;9.90;;
17265;SDS011;8749;47.076;15.412;2022-07-23T00:12:30;10.23;;;9.27;;
17265;SDS011;8749;47.076;15.412;2022-07-23T00:14:57;9.85;;;9.05;;
17265;SDS011;8749;47.076;15.412;2022-07-23T00:17:25;11.60;;;10.40;;
17265;SDS011;8749;47.076;15.412;2022-07-23T00:19:52;11.40;;;10.20;;
17265;SDS011;8749;47.076;15.412;2022-07-23T00:22:19;10.00;;;9.10;;
17265;SDS011;8749;47.076;15.412;2022-07-23T00:24:46;11.05;;;10.00;;
17265;SDS011;8749;47.076;15.412;2022-07-23T00:27:13;11.07;;;10.07;;
17265;SDS011;8749;47.076;15.412;2022-07-23T00:29:40;10.30;;;9.40;;
17265;SDS011;8749;47.076;15.412;2022-07-23T00:32:06;10.82;;;9.82;;
17265;SDS011;8749;47.076;15.412;2022-07-23T00:34:35;10.25;;;9.35;;
17265;SDS011;8749;47.076;15.412;2022-07-23T00:37:02;10.10;;;9.23;;
17265;SDS011;8749;47.076;15.412;2022-07-23T00:39:29;10.25;;;9.30;;
17265;SDS011;8749;47.076;15.412;2022-07-23T00:41:55;10.43;;;9.43;;
17265;SDS011;8749;47.076;15.412;2022-07-23T00:44:23;10.95;;;9.85;;
17265;SDS011;8749;47.076;15.412;2022-07-23T00:46:52;9.93;;;9.13;;
17265;SDS011;8749;47.076;15.412;2022-07-23T00:49:20;10.52;;;9.43;;
17265;SDS011;8749;47.076;15.412;2022-07-23T00:51:49;10.60;;;9.50;;
17265;SDS011;8749;47.076;15.412;2022-07-23T00:54:16;10.82;;;9.65;;
17265;SDS011;8749;47.076;15.412;2022-07-23T00:56:44;10.75;;;9.75;;
17265;SDS011;8749;47.076;15.412;2022-07-23T00:59:12;10.57;;;9.43;;
17265;SDS011;8749;47.076;15.412;2022-07-23T01:01:40;11.25;;;9.38;;
17265;SDS011;8749;47.076;15.412;2022-07-23T01:04:09;10.50;;;9.50;;
17265;SDS011;8749;47.076;15.412;2022-07-23T01:06:36;10.35;;;9.45;;
17265;SDS011;8749;47.076;15.412;2022-07-23T01:09:05;10.43;;;9.43;;
17265;SDS011;8749;47.076;15.412;2022-07-23T01:11:33;9.85;;;8.85;;
17265;SDS011;8749;47.076;15.412;2022-07-23T01:14:07;9.15;;;8.38;;
17265;SDS011;8749;47.076;15.412;2022-07-23T01:16:35;9.18;;;8.38;;
17265;SDS011;8749;47.076;15.412;2022-07-23T01:19:02;9.18;;;8.18;;
17265;SDS011;8749;47.076;15.412;2022-07-23T01:21:31;8.95;;;8.23;;
17265;SDS011;8749;47.076;15.412;2022-07-23T01:24:01;8.70;;;7.97;;
17265;SDS011;8749;47.076;15.412;2022-07-23T01:26:29;9.43;;;8.25;;
17265;SDS011;8749;47.076;15.412;2022-07-23T01:28:56;8.90;;;8.10;;
17265;SDS011;8749;47.076;15.412;2022-07-23T01:31:23;11.15;;;8.43;;
17265;SDS011;8749;47.076;15.412;2022-07-23T01:33:49;10.18;;;8.57;;
17265;SDS011;8749;47.076;15.412;2022-07-23T01:36:16;8.93;;;8.13;;
17265;SDS011;8749;47.076;15.412;2022-07-23T01:38:43;8.70;;;7.88;;
17265;SDS011;8749;47.076;15.412;2022-07-23T01:41:11;9.07;;;8.27;;
17265;SDS011;8749;47.076;15.412;2022-07-23T01:43:38;9.57;;;8.68;;
17265;SDS011;8749;47.076;15.412;2022-07-23T01:46:05;9.35;;;8.55;;
17265;SDS011;8749;47.076;15.412;2022-07-23T01:48:32;9.38;;;8.43;;
17265;SDS011;8749;47.076;15.412;2022-07-23T01:50:59;8.75;;;8.10;;
17265;SDS011;8749;47.076;15.412;2022-07-23T01:53:26;9.18;;;8.38;;
17265;SDS011;8749;47.076;15.412;2022-07-23T01:55:56;8.70;;;8.05;;
17265;SDS011;8749;47.076;15.412;2022-07-23T01:58:24;8.90;;;8.10;;
17265;SDS011;8749;47.076;15.412;2022-07-23T02:00:51;9.25;;;8.50;;
17265;SDS011;8749;47.076;15.412;2022-07-23T02:03:18;8.95;;;8.18;;
17265;SDS011;8749;47.076;15.412;2022-07-23T02:05:46;9.30;;;8.45;;
17265;SDS011;8749;47.076;15.412;2022-07-23T02:08:12;9.25;;;8.45;;
17265;SDS011;8749;47.076;15.412;2022-07-23T02:10:39;9.30;;;8.50;;
17265;SDS011;8749;47.076;15.412;2022-07-23T02:13:06;9.02;;;8.18;;
17265;SDS011;8749;47.076;15.412;2022-07-23T02:15:35;9.60;;;8.40;;
17265;SDS011;8749;47.076;15.412;2022-07-23T02:18:02;8.07;;;7.38;;
17265;SDS011;8749;47.076;15.412;2022-07-23T02:20:29;9.25;;;8.35;;
17265;SDS011;8749;47.076;15.412;2022-07-23T02:22:56;10.10;;;8.55;;
17265;SDS011;8749;47.076;15.412;2022-07-23T02:25:23;9.65;;;8.63;;
17265;SDS011;8749;47.076;15.412;2022-07-23T02:27:50;9.63;;;8.48;;
17265;SDS011;8749;47.076;15.412;2022-07-23T02:30:17;11.45;;;8.73;;
17265;SDS011;8749;47.076;15.412;2022-07-23T02:32:45;9.52;;;8.77;;
17265;SDS011;8749;47.076;15.412;2022-07-23T02:35:12;10.43;;;9.35;;
17265;SDS011;8749;47.076;15.412;2022-07-23T02:37:39;10.73;;;9.27;;
17265;SDS011;8749;47.076;15.412;2022-07-23T02:40:06;10.65;;;9.65;;
17265;SDS011;8749;47.076;15.412;2022-07-23T02:42:33;9.90;;;9.00;;
17265;SDS011;8749;47.076;15.412;2022-07-23T02:45:00;9.80;;;8.90;;
17265;SDS011;8749;47.076;15.412;2022-07-23T02:47:27;9.63;;;8.77;;
17265;SDS011;8749;47.076;15.412;2022-07-23T02:49:55;10.32;;;9.35;;
17265;SDS011;8749;47.076;15.412;2022-07-23T02:52:22;9.65;;;8.85;;
17265;SDS011;8749;47.076;15.412;2022-07-23T02:54:49;9.85;;;8.60;;
17265;SDS011;8749;47.076;15.412;2022-07-23T02:57:16;9.63;;;8.73;;
17265;SDS011;8749;47.076;15.412;2022-07-23T02:59:43;9.57;;;8.73;;
17265;SDS011;8749;47.076;15.412;2022-07-23T03:02:09;9.32;;;8.63;;
17265;SDS011;8749;47.076;15.412;2022-07-23T03:04:36;10.02;;;9.13;;
17265;SDS011;8749;47.076;15.412;2022-07-23T03:07:05;10.10;;;9.20;;
17265;SDS011;8749;47.076;15.412;2022-07-23T03:09:31;10.02;;;9.23;;
17265;SDS011;8749;47.076;15.412;2022-07-23T03:11:58;10.45;;;9.40;;
17265;SDS011;8749;47.076;15.412;2022-07-23T03:14:25;32.80;;;28.40;;
17265;SDS011;8749;47.076;15.412;2022-07-23T03:16:52;19.30;;;17.50;;
17265;SDS011;8749;47.076;15.412;2022-07-23T03:19:19;11.75;;;10.00;;
17265;SDS011;8749;47.076;15.412;2022-07-23T03:21:46;11.40;;;10.32;;
17265;SDS011;8749;47.076;15.412;2022-07-23T03:24:14;10.90;;;9.90;;
17265;SDS011;8749;47.076;15.412;2022-07-23T03:26:42;10.68;;;9.50;;
17265;SDS011;8749;47.076;15.412;2022-07-23T03:29:10;11.07;;;10.07;;
17265;SDS011;8749;47.076;15.412;2022-07-23T03:31:37;29.40;;;23.80;;
17265;SDS011;8749;47.076;15.412;2022-07-23T03:34:03;16.42;;;14.80;;
17265;SDS011;8749;47.076;15.412;2022-07-23T03:36:30;12.35;;;10.85;;
17265;SDS011;8749;47.076;15.412;2022-07-23T03:38:57;12.60;;;10.32;;
17265;SDS011;8749;47.076;15.412;2022-07-23T03:41:25;11.95;;;10.85;;
17265;SDS011;8749;47.076;15.412;2022-07-23T03:43:52;12.02;;;10.65;;
17265;SDS011;8749;47.076;15.412;2022-07-23T03:46:19;11.45;;;10.45;;
17265;SDS011;8749;47.076;15.412;2022-07-23T03:48:46;12.00;;;10.85;;
17265;SDS011;8749;47.076;15.412;2022-07-23T03:51:13;11.35;;;10.30;;
17265;SDS011;8749;47.076;15.412;2022-07-23T03:53:40;10.75;;;9.65;;
17265;SDS011;8749;47.076;15.412;2022-07-23T03:56:07;11.07;;;9.98;;
17265;SDS011;8749;47.076;15.412;2022-07-23T03:58:35;37.20;;;29.83;;
17265;SDS011;8749;47.076;15.412;2022-07-23T04:01:02;20.70;;;18.35;;
17265;SDS011;8749;47.076;15.412;2022-07-23T04:03:29;22.77;;;18.50;;
17265;SDS011;8749;47.076;15.412;2022-07-23T04:05:56;12.70;;;11.38;;
17265;SDS011;8749;47.076;15.412;2022-07-23T04:08:23;15.02;;;13.35;;
17265;SDS011;8749;47.076;15.412;2022-07-23T04:10:50;22.75;;;19.10;;
17265;SDS011;8749;47.076;15.412;2022-07-23T04:13:17;13.40;;;12.20;;
17265;SDS011;8749;47.076;15.412;2022-07-23T04:15:46;13.25;;;11.93;;
17265;SDS011;8749;47.076;15.412;2022-07-23T04:18:13;12.15;;;11.05;;
17265;SDS011;8749;47.076;15.412;2022-07-23T04:20:42;15.10;;;11.25;;
17265;SDS011;8749;47.076;15.412;2022-07-23T04:23:09;12.13;;;10.90;;
17265;SDS011;8749;47.076;15.412;2022-07-23T04:25:36;12.25;;;11.05;;
17265;SDS011;8749;47.076;15.412;2022-07-23T04:28:03;12.85;;;11.63;;
17265;SDS011;8749;47.076;15.412;2022-07-23T04:30:30;12.07;;;10.98;;
17265;SDS011;8749;47.076;15.412;2022-07-23T04:32:58;12.07;;;10.77;;
17265;SDS011;8749;47.076;15.412;2022-07-23T04:35:25;13.00;;;11.80;;
17265;SDS011;8749;47.076;15.412;2022-07-23T04:37:52;12.40;;;10.93;;
17265;SDS011;8749;47.076;15.412;2022-07-23T04:40:19;11.57;;;10.63;;
17265;SDS011;8749;47.076;15.412;2022-07-23T04:42:46;12.68;;;10.38;;
17265;SDS011;8749;47.076;15.412;2022-07-23T04:45:13;12.48;;;10.70;;
17265;SDS011;8749;47.076;15.412;2022-07-23T04:47:40;12.68;;;10.57;;
17265;SDS011;8749;47.076;15.412;2022-07-23T04:50:08;12.90;;;11.70;;
17265;SDS011;8749;47.076;15.412;2022-07-23T04:52:35;11.38;;;10.38;;
17265;SDS011;8749;47.076;15.412;2022-07-23T04:55:02;12.93;;;11.32;;
17265;SDS011;8749;47.076;15.412;2022-07-23T04:57:30;13.65;;;10.90;;
17265;SDS011;8749;47.076;15.412;2022-07-23T04:59:57;14.40;;;12.35;;
17265;SDS011;8749;47.076;15.412;2022-07-23T05:02:23;13.77;;;11.30;;
17265;SDS011;8749;47.076;15.412;2022-07-23T05:04:50;13.68;;;11.43;;
17265;SDS011;8749;47.076;15.412;2022-07-23T05:07:18;34.15;;;29.48;;
17265;SDS011;8749;47.076;15.412;2022-07-23T05:09:45;41.58;;;33.67;;
17265;SDS011;8749;47.076;15.412;2022-07-23T05:12:12;15.57;;;12.82;;
17265;SDS011;8749;47.076;15.412;2022-07-23T05:14:39;13.38;;;11.98;;
17265;SDS011;8749;47.076;15.412;2022-07-23T05:17:06;14.52;;;12.55;;
17265;SDS011;8749;47.076;15.412;2022-07-23T05:19:34;15.25;;;11.90;;
17265;SDS011;8749;47.076;15.412;2022-07-23T05:22:00;14.43;;;12.23;;
17265;SDS011;8749;47.076;15.412;2022-07-23T05:24:29;12.48;;;11.32;;
17265;SDS011;8749;47.076;15.412;2022-07-23T05:26:56;13.55;;;12.15;;
17265;SDS011;8749;47.076;15.412;2022-07-23T05:29:23;12.38;;;11.23;;
17265;SDS011;8749;47.076;15.412;2022-07-23T05:31:49;13.00;;;11.73;;
17265;SDS011;8749;47.076;15.412;2022-07-23T05:34:16;14.82;;;11.05;;
17265;SDS011;8749;47.076;15.412;2022-07-23T05:36:43;13.48;;;11.32;;
17265;SDS011;8749;47.076;15.412;2022-07-23T05:39:10;13.95;;;11.90;;
17265;SDS011;8749;47.076;15.412;2022-07-23T05:41:38;13.05;;;11.77;;
17265;SDS011;8749;47.076;15.412;2022-07-23T05:44:05;15.77;;;11.07;;
17265;SDS011;8749;47.076;15.412;2022-07-23T05:46:32;12.90;;;11.38;;
17265;SDS011;8749;47.076;15.412;2022-07-23T05:48:59;12.57;;;11.18;;
17265;SDS011;8749;47.076;15.412;2022-07-23T05:51:26;11.77;;;10.63;;
17265;SDS011;8749;47.076;15.412;2022-07-23T05:53:53;15.27;;;11.77;;
17265;SDS011;8749;47.076;15.412;2022-07-23T05:56:20;13.00;;;11.68;;
17265;SDS011;8749;47.076;15.412;2022-07-23T05:58:48;12.48;;;11.05;;
17265;SDS011;8749;47.076;15.412;2022-07-23T06:01:15;12.68;;;11.45;;
17265;SDS011;8749;47.076;15.412;2022-07-23T06:03:42;18.15;;;16.25;;
17265;SDS011;8749;47.076;15.412;2022-07-23T06:06:09;13.38;;;12.15;;
17265;SDS011;8749;47.076;15.412;2022-07-23T06:08:36;13.73;;;11.80;;
17265;SDS011;8749;47.076;15.412;2022-07-23T06:11:03;14.27;;;12.80;;
17265;SDS011;8749;47.076;15.412;2022-07-23T06:13:29;14.52;;;12.48;;
17265;SDS011;8749;47.076;15.412;2022-07-23T06:15:58;19.10;;;16.33;;
17265;SDS011;8749;47.076;15.412;2022-07-23T06:18:25;15.48;;;13.88;;
17265;SDS011;8749;47.076;15.412;2022-07-23T06:20:52;14.23;;;11.88;;
17265;SDS011;8749;47.076;15.412;2022-07-23T06:23:19;13.82;;;12.43;;
17265;SDS011;8749;47.076;15.412;2022-07-23T06:25:46;13.13;;;11.85;;
17265;SDS011;8749;47.076;15.412;2022-07-23T06:28:13;13.23;;;11.70;;
17265;SDS011;8749;47.076;15.412;2022-07-23T06:30:40;12.95;;;11.63;;
17265;SDS011;8749;47.076;15.412;2022-07-23T06:33:08;12.15;;;10.80;;
17265;SDS011;8749;47.076;15.412;2022-07-23T06:35:36;12.38;;;11.02;;
17265;SDS011;8749;47.076;15.412;2022-07-23T06:38:03;13.65;;;11.57;;
17265;SDS011;8749;47.076;15.412;2022-07-23T06:40:30;12.20;;;11.07;;
17265;SDS011;8749;47.076;15.412;2022-07-23T06:42:57;11.93;;;10.70;;
17265;SDS011;8749;47.076;15.412;2022-07-23T06:45:24;12.43;;;11.23;;
17265;SDS011;8749;47.076;15.412;2022-07-23T06:47:51;13.38;;;12.05;;
17265;SDS011;8749;47.076;15.412;2022-07-23T06:50:19;12.38;;;10.27;;
17265;SDS011;8749;47.076;15.412;2022-07-23T06:52:46;15.20;;;11.45;;
17265;SDS011;8749;47.076;15.412;2022-07-23T06:55:13;10.02;;;9.15;;
17265;SDS011;8749;47.076;15.412;2022-07-23T06:57:40;9.32;;;8.43;;
17265;SDS011;8749;47.076;15.412;2022-07-23T07:00:07;9.02;;;8.30;;
17265;SDS011;8749;47.076;15.412;2022-07-23T07:02:35;9.40;;;8.38;;
17265;SDS011;8749;47.076;15.412;2022-07-23T07:05:02;9.80;;;9.00;;
17265;SDS011;8749;47.076;15.412;2022-07-23T07:07:31;10.20;;;9.30;;
17265;SDS011;8749;47.076;15.412;2022-07-23T07:09:58;9.43;;;8.63;;
17265;SDS011;8749;47.076;15.412;2022-07-23T07:12:25;9.77;;;8.85;;
17265;SDS011;8749;47.076;15.412;2022-07-23T07:14:52;9.95;;;8.20;;
17265;SDS011;8749;47.076;15.412;2022-07-23T07:17:19;9.43;;;7.90;;
17265;SDS011;8749;47.076;15.412;2022-07-23T07:19:46;13.15;;;8.43;;
17265;SDS011;8749;47.076;15.412;2022-07-23T07:22:13;9.85;;;8.35;;
17265;SDS011;8749;47.076;15.412;2022-07-23T07:24:42;8.73;;;7.93;;
17265;SDS011;8749;47.076;15.412;2022-07-23T07:27:09;8.25;;;7.60;;
17265;SDS011;8749;47.076;15.412;2022-07-23T07:29:36;8.52;;;7.65;;
17265;SDS011;8749;47.076;15.412;2022-07-23T07:32:03;8.23;;;7.43;;
17265;SDS011;8749;47.076;15.412;2022-07-23T07:34:30;8.13;;;7.53;;
17265;SDS011;8749;47.076;15.412;2022-07-23T07:36:57;7.78;;;7.00;;
17265;SDS011;8749;47.076;15.412;2022-07-23T07:39:24;7.50;;;6.82;;
17265;SDS011;8749;47.076;15.412;2022-07-23T07:41:52;8.23;;;7.13;;
17265;SDS011;8749;47.076;15.412;2022-07-23T07:44:19;7.65;;;7.03;;
17265;SDS011;8749;47.076;15.412;2022-07-23T07:46:46;8.35;;;7.55;;
17265;SDS011;8749;47.076;15.412;2022-07-23T07:49:13;7.82;;;7.13;;
17265;SDS011;8749;47.076;15.412;2022-07-23T07:51:42;10.13;;;6.57;;
17265;SDS011;8749;47.076;15.412;2022-07-23T07:54:09;6.68;;;6.15;;
17265;SDS011;8749;47.076;15.412;2022-07-23T07:56:36;6.00;;;5.50;;
17265;SDS011;8749;47.076;15.412;2022-07-23T07:59:04;6.25;;;5.85;;
17265;SDS011;8749;47.076;15.412;2022-07-23T08:01:31;6.78;;;6.00;;
17265;SDS011;8749;47.076;15.412;2022-07-23T08:03:58;5.30;;;5.00;;
17265;SDS011;8749;47.076;15.412;2022-07-23T08:06:25;5.20;;;4.90;;
17265;SDS011;8749;47.076;15.412;2022-07-23T08:08:52;5.40;;;5.00;;
17265;SDS011;8749;47.076;15.412;2022-07-23T08:11:18;4.88;;;4.57;;
17265;SDS011;8749;47.076;15.412;2022-07-23T08:13:45;4.97;;;4.60;;
17265;SDS011;8749;47.076;15.412;2022-07-23T08:16:14;4.90;;;4.60;;
17265;SDS011;8749;47.076;15.412;2022-07-23T08:18:41;11.25;;;10.20;;
17265;SDS011;8749;47.076;15.412;2022-07-23T08:21:07;8.65;;;7.90;;
17265;SDS011;8749;47.076;15.412;2022-07-23T08:23:34;6.38;;;5.85;;
17265;SDS011;8749;47.076;15.412;2022-07-23T08:26:01;5.07;;;4.70;;
17265;SDS011;8749;47.076;15.412;2022-07-23T08:28:28;5.15;;;4.85;;
17265;SDS011;8749;47.076;15.412;2022-07-23T08:30:58;5.10;;;4.70;;
17265;SDS011;8749;47.076;15.412;2022-07-23T08:33:26;5.13;;;4.70;;
17265;SDS011;8749;47.076;15.412;2022-07-23T08:35:53;4.93;;;4.47;;
17265;SDS011;8749;47.076;15.412;2022-07-23T08:38:21;5.05;;;4.75;;
17265;SDS011;8749;47.076;15.412;2022-07-23T08:40:50;5.10;;;4.63;;
17265;SDS011;8749;47.076;15.412;2022-07-23T08:43:19;5.10;;;4.68;;
17265;SDS011;8749;47.076;15.412;2022-07-23T08:45:47;4.60;;;4.40;;
17265;SDS011;8749;47.076;15.412;2022-07-23T08:48:15;5.20;;;4.80;;
17265;SDS011;8749;47.076;15.412;2022-07-23T08:50:45;5.07;;;4.70;;
17265;SDS011;8749;47.076;15.412;2022-07-23T08:53:14;5.10;;;4.70;;
17265;SDS011;8749;47.076;15.412;2022-07-23T08:55:43;5.30;;;5.00;;
17265;SDS011;8749;47.076;15.412;2022-07-23T08:58:11;6.55;;;6.05;;
17265;SDS011;8749;47.076;15.412;2022-07-23T09:00:38;10.52;;;9.55;;
17265;SDS011;8749;47.076;15.412;2022-07-23T09:03:05;7.55;;;6.85;;
17265;SDS011;8749;47.076;15.412;2022-07-23T09:05:32;5.50;;;5.10;;
17265;SDS011;8749;47.076;15.412;2022-07-23T09:08:04;5.57;;;5.18;;
17265;SDS011;8749;47.076;15.412;2022-07-23T09:10:42;5.57;;;5.28;;
17265;SDS011;8749;47.076;15.412;2022-07-23T09:13:28;5.40;;;5.00;;
17265;SDS011;8749;47.076;15.412;2022-07-23T09:16:00;4.97;;;4.72;;
17265;SDS011;8749;47.076;15.412;2022-07-23T09:18:38;5.10;;;4.80;;
17265;SDS011;8749;47.076;15.412;2022-07-23T09:21:12;4.80;;;4.50;;
17265;SDS011;8749;47.076;15.412;2022-07-23T09:23:43;4.80;;;4.40;;
17265;SDS011;8749;47.076;15.412;2022-07-23T09:26:18;5.00;;;4.70;;
17265;SDS011;8749;47.076;15.412;2022-07-23T09:28:49;4.95;;;4.53;;
17265;SDS011;8749;47.076;15.412;2022-07-23T09:31:18;4.75;;;4.43;;
17265;SDS011;8749;47.076;15.412;2022-07-23T09:33:46;4.82;;;4.50;;
17265;SDS011;8749;47.076;15.412;2022-07-23T09:36:13;5.10;;;4.70;;
17265;SDS011;8749;47.076;15.412;2022-07-23T09:38:48;4.82;;;4.53;;
17265;SDS011;8749;47.076;15.412;2022-07-23T09:41:16;4.70;;;4.50;;
17265;SDS011;8749;47.076;15.412;2022-07-23T09:43:43;4.65;;;4.18;;
17265;SDS011;8749;47.076;15.412;2022-07-23T09:46:17;4.93;;;4.53;;
17265;SDS011;8749;47.076;15.412;2022-07-23T09:48:46;4.93;;;4.63;;
17265;SDS011;8749;47.076;15.412;2022-07-23T09:51:13;4.20;;;3.95;;
17265;SDS011;8749;47.076;15.412;2022-07-23T09:53:41;4.53;;;4.32;;
17265;SDS011;8749;47.076;15.412;2022-07-23T09:56:10;4.20;;;4.00;;
17265;SDS011;8749;47.076;15.412;2022-07-23T09:58:39;4.55;;;4.32;;
17265;SDS011;8749;47.076;15.412;2022-07-23T10:01:12;4.10;;;3.90;;
17265;SDS011;8749;47.076;15.412;2022-07-23T10:03:40;4.13;;;3.85;;
17265;SDS011;8749;47.076;15.412;2022-07-23T10:06:08;3.95;;;3.85;;
17265;SDS011;8749;47.076;15.412;2022-07-23T10:08:35;4.68;;;4.22;;
17265;SDS011;8749;47.076;15.412;2022-07-23T10:11:06;4.47;;;4.15;;
17265;SDS011;8749;47.076;15.412;2022-07-23T10:13:36;3.90;;;3.70;;
17265;SDS011;8749;47.076;15.412;2022-07-23T10:16:20;4.32;;;3.92;;
17265;SDS011;8749;47.076;15.412;2022-07-23T10:18:48;5.32;;;4.05;;
17265;SDS011;8749;47.076;15.412;2022-07-23T10:21:16;4.60;;;4.22;;
17265;SDS011;8749;47.076;15.412;2022-07-23T10:23:50;4.28;;;4.07;;
17265;SDS011;8749;47.076;15.412;2022-07-23T10:26:29;4.40;;;4.20;;
17265;SDS011;8749;47.076;15.412;2022-07-23T10:29:08;4.85;;;4.55;;
17265;SDS011;8749;47.076;15.412;2022-07-23T10:31:42;4.60;;;4.30;;
17265;SDS011;8749;47.076;15.412;2022-07-23T10:34:19;4.45;;;4.25;;
17265;SDS011;8749;47.076;15.412;2022-07-23T10:36:52;5.03;;;4.55;;
17265;SDS011;8749;47.076;15.412;2022-07-23T10:39:24;4.97;;;4.68;;
17265;SDS011;8749;47.076;15.412;2022-07-23T10:42:07;5.28;;;4.85;;
17265;SDS011;8749;47.076;15.412;2022-07-23T10:44:39;6.30;;;5.40;;
17265;SDS011;8749;47.076;15.412;2022-07-23T10:47:08;6.03;;;5.63;;
17265;SDS011;8749;47.076;15.412;2022-07-23T10:49:48;5.40;;;5.00;;
17265;SDS011;8749;47.076;15.412;2022-07-23T10:52:19;4.93;;;4.63;;
17265;SDS011;8749;47.076;15.412;2022-07-23T10:54:51;5.57;;;4.75;;
17265;SDS011;8749;47.076;15.412;2022-07-23T10:57:20;4.93;;;4.63;;
17265;SDS011;8749;47.076;15.412;2022-07-23T11:02:46;5.60;;;5.20;;
17265;SDS011;8749;47.076;15.412;2022-07-23T11:05:15;5.85;;;5.10;;
17265;SDS011;8749;47.076;15.412;2022-07-23T11:10:43;5.97;;;5.57;;
17265;SDS011;8749;47.076;15.412;2022-07-23T11:16:22;6.40;;;5.90;;
17265;SDS011;8749;47.076;15.412;2022-07-23T11:19:06;5.63;;;5.22;;
17265;SDS011;8749;47.076;15.412;2022-07-23T11:21:43;5.20;;;4.90;;
17265;SDS011;8749;47.076;15.412;2022-07-23T11:24:12;5.80;;;5.28;;
17265;SDS011;8749;47.076;15.412;2022-07-23T11:26:40;5.85;;;5.32;;
17265;SDS011;8749;47.076;15.412;2022-07-23T11:29:42;5.95;;;5.20;;
17265;SDS011;8749;47.076;15.412;2022-07-23T11:35:20;7.63;;;6.97;;
17265;SDS011;8749;47.076;15.412;2022-07-23T11:37:49;5.78;;;5.30;;
17265;SDS011;8749;47.076;15.412;2022-07-23T11:40:19;6.03;;;5.53;;
17265;SDS011;8749;47.076;15.412;2022-07-23T11:42:51;5.90;;;5.45;;
17265;SDS011;8749;47.076;15.412;2022-07-23T11:45:20;6.63;;;5.88;;
17265;SDS011;8749;47.076;15.412;2022-07-23T11:47:49;5.82;;;5.43;;
17265;SDS011;8749;47.076;15.412;2022-07-23T11:50:16;6.80;;;6.30;;
17265;SDS011;8749;47.076;15.412;2022-07-23T11:52:43;6.20;;;5.90;;
17265;SDS011;8749;47.076;15.412;2022-07-23T11:55:11;5.43;;;5.13;;
17265;SDS011;8749;47.076;15.412;2022-07-23T11:57:41;5.38;;;5.07;;
17265;SDS011;8749;47.076;15.412;2022-07-23T12:00:09;5.45;;;5.05;;
17265;SDS011;8749;47.076;15.412;2022-07-23T12:02:39;5.53;;;5.13;;
17265;SDS011;8749;47.076;15.412;2022-07-23T12:05:08;6.07;;;5.68;;
17265;SDS011;8749;47.076;15.412;2022-07-23T12:07:39;6.82;;;5.70;;
17265;SDS011;8749;47.076;15.412;2022-07-23T12:10:09;5.53;;;5.13;;
17265;SDS011;8749;47.076;15.412;2022-07-23T12:12:38;5.95;;;5.55;;
17265;SDS011;8749;47.076;15.412;2022-07-23T12:15:07;5.57;;;5.28;;
17265;SDS011;8749;47.076;15.412;2022-07-23T12:17:35;5.57;;;5.25;;
17265;SDS011;8749;47.076;15.412;2022-07-23T12:20:04;6.15;;;5.78;;
17265;SDS011;8749;47.076;15.412;2022-07-23T12:22:35;5.70;;;5.22;;
17265;SDS011;8749;47.076;15.412;2022-07-23T12:25:04;16.85;;;5.75;;
17265;SDS011;8749;47.076;15.412;2022-07-23T12:27:33;5.85;;;5.35;;
17265;SDS011;8749;47.076;15.412;2022-07-23T12:30:14;7.18;;;6.68;;
17265;SDS011;8749;47.076;15.412;2022-07-23T12:32:42;9.82;;;8.93;;
17265;SDS011;8749;47.076;15.412;2022-07-23T12:35:11;12.23;;;11.13;;
17265;SDS011;8749;47.076;15.412;2022-07-23T12:37:41;9.55;;;8.85;;
17265;SDS011;8749;47.076;15.412;2022-07-23T12:40:22;9.52;;;8.82;;
17265;SDS011;8749;47.076;15.412;2022-07-23T12:42:51;8.07;;;7.43;;
17265;SDS011;8749;47.076;15.412;2022-07-23T12:45:20;7.93;;;7.35;;
17265;SDS011;8749;47.076;15.412;2022-07-23T12:47:50;8.60;;;8.00;;
17265;SDS011;8749;47.076;15.412;2022-07-23T12:50:36;8.50;;;7.70;;
17265;SDS011;8749;47.076;15.412;2022-07-23T12:53:07;7.20;;;6.70;;
17265;SDS011;8749;47.076;15.412;2022-07-23T12:55:36;7.28;;;6.78;;
17265;SDS011;8749;47.076;15.412;2022-07-23T12:58:09;8.70;;;8.00;;
17265;SDS011;8749;47.076;15.412;2022-07-23T13:00:58;10.68;;;9.68;;
17265;SDS011;8749;47.076;15.412;2022-07-23T13:03:31;8.75;;;8.13;;
17265;SDS011;8749;47.076;15.412;2022-07-23T13:06:00;6.55;;;6.05;;
17265;SDS011;8749;47.076;15.412;2022-07-23T13:08:30;7.43;;;5.90;;
17265;SDS011;8749;47.076;15.412;2022-07-23T13:10:59;6.45;;;6.05;;
17265;SDS011;8749;47.076;15.412;2022-07-23T13:13:28;6.55;;;6.05;;
17265;SDS011;8749;47.076;15.412;2022-07-23T13:15:56;5.95;;;5.55;;
17265;SDS011;8749;47.076;15.412;2022-07-23T13:18:24;6.00;;;5.50;;
17265;SDS011;8749;47.076;15.412;2022-07-23T13:20:51;6.32;;;5.70;;
17265;SDS011;8749;47.076;15.412;2022-07-23T13:23:18;8.20;;;7.60;;
17265;SDS011;8749;47.076;15.412;2022-07-23T13:25:47;7.43;;;6.93;;
17265;SDS011;8749;47.076;15.412;2022-07-23T13:28:14;6.40;;;6.00;;
17265;SDS011;8749;47.076;15.412;2022-07-23T13:30:42;6.38;;;5.97;;
17265;SDS011;8749;47.076;15.412;2022-07-23T13:33:10;6.18;;;5.80;;
17265;SDS011;8749;47.076;15.412;2022-07-23T13:35:38;6.18;;;5.78;;
17265;SDS011;8749;47.076;15.412;2022-07-23T13:38:05;6.15;;;5.75;;
17265;SDS011;8749;47.076;15.412;2022-07-23T13:40:33;7.00;;;6.40;;
17265;SDS011;8749;47.076;15.412;2022-07-23T13:43:04;6.55;;;6.05;;
17265;SDS011;8749;47.076;15.412;2022-07-23T13:45:32;6.35;;;5.50;;
17265;SDS011;8749;47.076;15.412;2022-07-23T13:47:59;6.93;;;6.10;;
17265;SDS011;8749;47.076;15.412;2022-07-23T13:50:26;6.80;;;6.40;;
17265;SDS011;8749;47.076;15.412;2022-07-23T13:52:53;5.68;;;5.28;;
17265;SDS011;8749;47.076;15.412;2022-07-23T13:55:20;5.65;;;5.22;;
17265;SDS011;8749;47.076;15.412;2022-07-23T13:57:47;5.43;;;5.13;;
17265;SDS011;8749;47.076;15.412;2022-07-23T14:00:16;6.07;;;5.68;;
17265;SDS011;8749;47.076;15.412;2022-07-23T14:02:43;5.15;;;4.93;;
17265;SDS011;8749;47.076;15.412;2022-07-23T14:05:10;5.70;;;5.30;;
17265;SDS011;8749;47.076;15.412;2022-07-23T14:07:37;6.10;;;5.60;;
17265;SDS011;8749;47.076;15.412;2022-07-23T14:10:05;7.53;;;6.05;;
17265;SDS011;8749;47.076;15.412;2022-07-23T14:12:33;7.10;;;6.60;;
17265;SDS011;8749;47.076;15.412;2022-07-23T14:15:00;7.40;;;6.90;;
17265;SDS011;8749;47.076;15.412;2022-07-23T14:17:29;7.22;;;6.72;;
17265;SDS011;8749;47.076;15.412;2022-07-23T14:19:57;8.60;;;7.85;;
17265;SDS011;8749;47.076;15.412;2022-07-23T14:22:25;7.60;;;7.07;;
17265;SDS011;8749;47.076;15.412;2022-07-23T14:24:52;6.30;;;5.90;;
17265;SDS011;8749;47.076;15.412;2022-07-23T14:27:19;5.50;;;5.20;;
17265;SDS011;8749;47.076;15.412;2022-07-23T14:29:46;5.90;;;5.50;;
17265;SDS011;8749;47.076;15.412;2022-07-23T14:32:12;6.75;;;6.25;;
17265;SDS011;8749;47.076;15.412;2022-07-23T14:34:41;5.80;;;5.45;;
17265;SDS011;8749;47.076;15.412;2022-07-23T14:37:09;5.90;;;5.32;;
17265;SDS011;8749;47.076;15.412;2022-07-23T14:39:37;6.10;;;5.70;;
17265;SDS011;8749;47.076;15.412;2022-07-23T14:42:04;5.53;;;5.22;;
17265;SDS011;8749;47.076;15.412;2022-07-23T14:44:31;6.00;;;5.50;;
17265;SDS011;8749;47.076;15.412;2022-07-23T14:46:58;5.70;;;5.40;;
17265;SDS011;8749;47.076;15.412;2022-07-23T14:49:26;5.65;;;5.35;;
17265;SDS011;8749;47.076;15.412;2022-07-23T14:51:54;5.43;;;5.13;;
17265;SDS011;8749;47.076;15.412;2022-07-23T14:54:21;6.75;;;5.55;;
17265;SDS011;8749;47.076;15.412;2022-07-23T14:56:48;5.53;;;5.13;;